Hovedside
METAR-TAF:

METAR-TAF

Lufthavner :

Svolvær lufthavn. Helle

Svolvær, Norge

breddegrad: 68-15N, lengdegrad: 014-40E, høyde over havet: 0 m

Gjeldene værobservasjon

Denne rapporten ble laget for 41 minutter siden, klokken 13:50 UTC
Vind 1 kt fra skiftende retning
Temperatur 30°C
Luftfuktighet 40%
Trykk 1013 hPa
Sikt 10 km eller mer
ingen skyer under 1500 m og ingen bygeskyer

METAR: ENSH 181350Z VRB01KT CAVOK 30/15 Q1013 RMK WIND 150FT 13005KT

Tid: 16:31 (14:31 UTC)

Varsel

Denne rapporten ble laget for 3 timer og 31 minutter siden, klokken 11:00 UTC
Varsel gyldig fra 18. klokken 12 UTC til 18. klokken 20 UTC
Vind 8 kt fra Øst-nordøst
Sikt 10 km eller mer
Få skyer i en høyde av 5000 ft

TAF: ENSH 181100Z 1812/1820 07008KT 9999 FEW050

Værobservasjoner og værvarsel for over 4000 flyplasser (METAR- og TAF-rapporter).

Tilgjengelige stasjoner er representert av de røde og gule prikkene på kartet.

Hold musepekeren over prikken for å se navnet på stasjonen.

Klikk så for å se værobservasjoner og -varsler.

For å forandre kartet kan du klikke på den grønne knappen med svart kryss for å zoome inn, på den grønne knappen med strek for å zoome ut, eller på de grønne pilene for å se tilstøtende kart.


METAR-TAF: